Time;durP1;ratioP1;P1;durP2;ratioP2;P2;SDS_P1;SDS_P2;PMS_P1;PMS_P2;Temp;Humidity;BMP_temperature;BMP_pressure;BME280_temperature;BME280_humidity;BME280_pressure;Samples;Min_cycle;Max_cycle;Signal;HPM_P1;HPM_P2
2023/12/01 00:00:31;;;;;;;55.93;21.97;;;2.10;99.90;;;;;;5074922;28;20165;-74
2023/12/01 00:02:57;;;;;;;54.97;23.60;;;2.00;99.90;;;;;;5075308;28;20181;-74
2023/12/01 00:05:23;;;;;;;57.83;24.47;;;1.80;99.90;;;;;;5073906;28;20275;-74
2023/12/01 00:07:49;;;;;;;50.20;22.10;;;1.80;99.90;;;;;;5075630;28;20641;-73
2023/12/01 00:10:14;;;;;;;51.67;22.57;;;1.70;99.90;;;;;;5075431;28;20175;-74
2023/12/01 00:12:40;;;;;;;48.93;22.00;;;1.70;99.90;;;;;;5073870;28;20632;-73
2023/12/01 00:15:06;;;;;;;49.80;21.20;;;1.80;99.90;;;;;;5074741;28;20256;-74
2023/12/01 00:17:32;;;;;;;53.20;23.43;;;1.80;99.90;;;;;;5074911;28;20205;-74
2023/12/01 00:19:58;;;;;;;51.33;23.43;;;1.80;99.90;;;;;;5074620;28;20176;-75
2023/12/01 00:22:24;;;;;;;56.40;22.93;;;1.90;99.90;;;;;;5075154;28;20196;-74
2023/12/01 00:24:50;;;;;;;50.30;21.90;;;2.00;99.90;;;;;;5074008;28;20643;-74
2023/12/01 00:27:15;;;;;;;46.73;22.60;;;1.80;99.90;;;;;;5074613;28;20650;-74
2023/12/01 00:29:42;;;;;;;48.47;22.40;;;1.90;99.90;;;;;;5074554;28;20223;-72
2023/12/01 00:32:07;;;;;;;49.40;22.83;;;1.90;99.90;;;;;;5074727;28;20260;-74
2023/12/01 00:34:33;;;;;;;57.53;26.60;;;1.90;99.90;;;;;;5074627;28;20203;-74
2023/12/01 00:36:59;;;;;;;61.40;27.57;;;1.90;99.90;;;;;;5074591;28;20749;-74
2023/12/01 00:39:25;;;;;;;59.03;26.70;;;2.00;99.90;;;;;;5074526;28;20311;-74
2023/12/01 00:41:51;;;;;;;61.87;27.03;;;2.10;99.90;;;;;;5074699;28;20192;-74
2023/12/01 00:44:17;;;;;;;57.63;24.97;;;2.10;99.90;;;;;;5074217;28;20252;-74
2023/12/01 00:46:42;;;;;;;59.17;24.20;;;2.10;99.90;;;;;;5074637;28;20196;-74
2023/12/01 00:49:08;;;;;;;56.37;24.63;;;2.00;99.90;;;;;;5074160;28;20667;-74
2023/12/01 00:51:33;;;;;;;56.77;25.43;;;2.00;99.90;;;;;;5074224;28;20184;-74
2023/12/01 00:53:59;;;;;;;48.93;22.13;;;2.00;99.90;;;;;;5074194;28;20625;-74
2023/12/01 00:56:25;;;;;;;53.67;23.37;;;1.90;99.90;;;;;;5074233;28;20184;-74
2023/12/01 00:58:50;;;;;;;56.63;23.63;;;1.80;99.90;;;;;;5073735;28;20211;-74
2023/12/01 01:01:17;;;;;;;59.77;25.03;;;1.80;99.90;;;;;;5074213;28;20164;-74
2023/12/01 01:03:43;;;;;;;57.73;25.13;;;1.80;99.90;;;;;;5072619;28;20276;-74
2023/12/01 01:06:10;;;;;;;57.30;24.53;;;1.70;99.90;;;;;;5074208;28;20190;-73
2023/12/01 01:08:36;;;;;;;61.47;25.43;;;1.70;99.90;;;;;;5074059;28;20674;-74
2023/12/01 01:11:01;;;;;;;61.03;25.50;;;1.60;99.90;;;;;;5074167;28;20201;-74
2023/12/01 01:13:28;;;;;;;54.00;23.70;;;1.60;99.90;;;;;;5073442;28;20175;-74
2023/12/01 01:15:54;;;;;;;55.50;26.13;;;1.50;99.90;;;;;;5073995;28;20169;-73
2023/12/01 01:18:22;;;;;;;59.70;26.77;;;1.40;99.90;;;;;;5073684;28;20667;-73
2023/12/01 01:20:48;;;;;;;64.90;27.43;;;1.40;99.90;;;;;;5073787;28;20192;-73
2023/12/01 01:23:14;;;;;;;59.70;25.80;;;1.40;99.90;;;;;;5073595;28;20211;-73
2023/12/01 01:25:39;;;;;;;67.27;28.20;;;1.40;99.90;;;;;;5073536;28;20208;-73
2023/12/01 01:28:05;;;;;;;61.50;27.73;;;1.40;99.90;;;;;;5073171;28;20204;-73
2023/12/01 01:30:30;;;;;;;60.57;26.27;;;1.50;99.90;;;;;;5073584;28;20251;-74
2023/12/01 01:32:56;;;;;;;58.87;27.73;;;1.50;99.90;;;;;;5073564;28;20177;-74
2023/12/01 01:35:21;;;;;;;59.77;26.27;;;1.50;99.90;;;;;;5073542;28;20650;-74
2023/12/01 01:37:47;;;;;;;60.17;25.97;;;1.60;99.90;;;;;;5073618;28;20204;-73
2023/12/01 01:40:14;;;;;;;53.00;25.00;;;1.70;99.90;;;;;;5073603;28;20196;-74
2023/12/01 01:42:39;;;;;;;62.20;25.10;;;1.70;99.90;;;;;;5073121;28;20251;-74
2023/12/01 01:45:05;;;;;;;63.90;27.20;;;1.70;99.90;;;;;;5073515;28;20712;-74
2023/12/01 01:47:34;;;;;;;56.30;26.07;;;1.70;99.90;;;;;;5073434;28;20199;-74
2023/12/01 01:50:02;;;;;;;56.00;26.17;;;1.70;99.90;;;;;;5073523;28;20179;-73
2023/12/01 01:52:28;;;;;;;56.13;24.50;;;1.70;99.90;;;;;;5073443;28;20320;-73
2023/12/01 01:54:54;;;;;;;53.17;24.83;;;1.70;99.90;;;;;;5073381;28;20244;-74
2023/12/01 01:57:19;;;;;;;57.27;26.83;;;1.70;99.90;;;;;;5073186;28;20169;-73
2023/12/01 01:59:45;;;;;;;57.83;26.27;;;1.90;99.90;;;;;;5073347;28;20176;-73
2023/12/01 02:02:11;;;;;;;57.33;26.47;;;2.10;99.90;;;;;;5073110;28;20534;-73
2023/12/01 02:04:36;;;;;;;55.60;25.83;;;2.00;99.90;;;;;;5073293;28;20176;-73
2023/12/01 02:07:02;;;;;;;60.50;25.70;;;2.00;99.90;;;;;;5073267;28;20169;-74
2023/12/01 02:09:32;;;;;;;56.83;27.10;;;2.00;99.90;;;;;;5073216;28;20186;-73
2023/12/01 02:11:59;;;;;;;54.00;26.43;;;2.20;99.90;;;;;;5072750;28;20161;-73
2023/12/01 02:14:25;;;;;;;55.37;25.73;;;2.20;99.90;;;;;;5073297;28;20177;-73
2023/12/01 02:16:51;;;;;;;58.13;25.83;;;2.20;99.90;;;;;;5073111;28;20168;-74
2023/12/01 02:19:16;;;;;;;59.17;27.63;;;2.30;99.90;;;;;;5072966;28;20200;-74
2023/12/01 02:21:46;;;;;;;51.60;25.57;;;2.30;99.90;;;;;;5071837;28;20176;-73
2023/12/01 02:24:12;;;;;;;51.73;25.33;;;2.30;99.90;;;;;;5072954;28;20219;-73
2023/12/01 02:26:38;;;;;;;53.03;26.67;;;2.20;99.90;;;;;;5072355;28;20225;-74
2023/12/01 02:29:05;;;;;;;54.83;26.00;;;2.00;99.90;;;;;;5072868;28;20181;-73
2023/12/01 02:31:30;;;;;;;55.57;26.03;;;2.20;99.90;;;;;;5072967;28;20642;-73
2023/12/01 02:33:56;;;;;;;56.10;27.03;;;2.20;99.90;;;;;;5072831;28;20195;-73
2023/12/01 02:36:22;;;;;;;58.80;27.50;;;2.30;99.90;;;;;;5073008;28;20196;-74
2023/12/01 02:38:48;;;;;;;55.87;28.37;;;2.30;99.90;;;;;;5072738;28;20205;-73
2023/12/01 02:41:15;;;;;;;54.87;26.90;;;2.30;99.90;;;;;;5072475;28;20247;-73
2023/12/01 02:43:41;;;;;;;49.23;25.83;;;2.20;99.90;;;;;;5071423;28;20177;-73
2023/12/01 02:46:07;;;;;;;54.73;25.73;;;2.10;99.90;;;;;;5072830;28;20666;-72
2023/12/01 02:48:32;;;;;;;51.80;26.37;;;2.10;99.90;;;;;;5076353;28;20177;-73
2023/12/01 02:50:58;;;;;;;52.37;24.00;;;2.10;99.90;;;;;;5075452;28;20272;-73
2023/12/01 02:53:24;;;;;;;48.80;25.83;;;2.00;99.90;;;;;;5076651;28;20173;-72
2023/12/01 02:55:50;;;;;;;52.00;24.80;;;1.90;99.90;;;;;;5076260;28;20169;-74
2023/12/01 02:58:15;;;;;;;52.07;26.00;;;2.00;99.90;;;;;;5076310;28;20246;-73
2023/12/01 03:00:42;;;;;;;45.33;24.50;;;1.90;99.90;;;;;;5076650;28;20728;-73
2023/12/01 03:03:08;;;;;;;53.73;25.83;;;2.00;99.90;;;;;;5076478;28;20184;-74
2023/12/01 03:05:34;;;;;;;53.43;25.23;;;2.00;99.90;;;;;;5075175;28;20572;-73
2023/12/01 03:07:59;;;;;;;50.67;24.63;;;2.00;99.90;;;;;;5076298;28;20177;-73
2023/12/01 03:10:25;;;;;;;56.70;26.83;;;2.00;99.90;;;;;;5075830;28;20177;-73
2023/12/01 03:12:51;;;;;;;53.13;26.60;;;2.00;99.90;;;;;;5076183;28;20546;-73
2023/12/01 03:15:18;;;;;;;54.23;25.70;;;2.00;99.90;;;;;;5076340;28;20211;-74
2023/12/01 03:17:44;;;;;;;58.47;27.40;;;2.00;99.90;;;;;;5076108;28;20200;-74
2023/12/01 03:20:10;;;;;;;59.30;26.93;;;1.90;99.90;;;;;;5075956;28;20164;-73
2023/12/01 03:22:37;;;;;;;51.93;25.23;;;2.00;99.90;;;;;;5076082;28;20184;-75
2023/12/01 03:25:09;;;;;;;52.30;26.67;;;1.90;99.90;;;;;;5075608;28;20201;-74
2023/12/01 03:27:45;;;;;;;52.30;26.80;;;2.00;99.90;;;;;;5054673;28;20247;-73
2023/12/01 03:30:15;;;;;;;51.43;25.93;;;2.00;99.90;;;;;;5055847;28;20215;-73
2023/12/01 03:32:45;;;;;;;58.97;26.43;;;2.00;99.90;;;;;;5055897;28;20169;-73
2023/12/01 03:35:24;;;;;;;51.30;26.00;;;1.90;99.90;;;;;;5054600;28;20658;-73
2023/12/01 03:37:55;;;;;;;48.33;26.17;;;2.00;99.90;;;;;;5055322;28;20200;-74
2023/12/01 03:40:21;;;;;;;55.73;27.43;;;2.00;99.90;;;;;;5055467;28;20219;-74
2023/12/01 03:42:48;;;;;;;54.50;27.17;;;2.00;99.90;;;;;;5055594;28;20169;-73
2023/12/01 03:45:15;;;;;;;56.57;27.90;;;2.00;99.90;;;;;;5055648;28;20698;-74
2023/12/01 03:47:51;;;;;;;49.27;24.50;;;2.00;99.90;;;;;;5055606;28;20526;-74
2023/12/01 03:50:18;;;;;;;48.93;25.07;;;1.90;99.90;;;;;;5055495;28;20176;-74
2023/12/01 03:52:49;;;;;;;50.17;25.50;;;1.90;99.90;;;;;;5055160;28;20173;-74
2023/12/01 03:55:15;;;;;;;52.03;23.73;;;1.80;99.90;;;;;;5055550;28;20177;-74
2023/12/01 03:57:42;;;;;;;50.77;26.27;;;1.90;99.90;;;;;;5054944;28;20246;-74
2023/12/01 04:00:13;;;;;;;53.43;26.23;;;1.90;99.90;;;;;;5055357;28;20181;-74
2023/12/01 04:02:41;;;;;;;58.33;27.70;;;1.90;99.90;;;;;;5055377;28;20520;-73
2023/12/01 04:05:07;;;;;;;55.07;26.77;;;1.90;99.90;;;;;;5055070;28;20625;-73
2023/12/01 04:07:38;;;;;;;47.07;25.17;;;1.90;99.90;;;;;;5054857;28;20169;-74
2023/12/01 04:10:10;;;;;;;51.73;25.60;;;1.90;99.90;;;;;;5055162;28;20291;-74
2023/12/01 04:12:39;;;;;;;52.73;26.30;;;1.90;99.90;;;;;;5055206;28;20215;-74
2023/12/01 04:15:05;;;;;;;55.17;27.10;;;1.90;99.90;;;;;;5055077;28;20174;-74
2023/12/01 04:17:32;;;;;;;52.27;27.57;;;1.90;99.90;;;;;;5053944;28;20616;-73
2023/12/01 04:19:57;;;;;;;58.70;27.63;;;2.00;99.90;;;;;;5053823;28;20257;-74
2023/12/01 04:22:23;;;;;;;56.90;27.27;;;2.00;99.90;;;;;;5054214;28;20257;-74
2023/12/01 04:24:48;;;;;;;59.60;28.57;;;2.00;99.90;;;;;;5054757;28;20181;-74
2023/12/01 04:27:14;;;;;;;65.40;30.57;;;1.90;99.90;;;;;;5072509;28;20224;-74
2023/12/01 04:29:39;;;;;;;59.87;30.13;;;1.90;99.90;;;;;;5074379;28;20181;-73
2023/12/01 04:32:05;;;;;;;56.13;26.33;;;1.90;99.90;;;;;;5074469;28;20282;-75
2023/12/01 04:34:31;;;;;;;54.60;27.00;;;1.80;99.90;;;;;;5074277;28;20263;-74
2023/12/01 04:36:57;;;;;;;65.50;30.93;;;1.80;99.90;;;;;;5074062;28;20507;-73
2023/12/01 04:39:22;;;;;;;61.80;30.10;;;1.80;99.90;;;;;;5074129;28;20208;-74
2023/12/01 04:41:50;;;;;;;63.63;30.80;;;1.80;99.90;;;;;;5074374;28;20255;-74
2023/12/01 04:44:16;;;;;;;61.73;30.00;;;1.80;99.90;;;;;;5074286;28;20176;-74
2023/12/01 04:46:42;;;;;;;56.77;28.17;;;1.70;99.90;;;;;;5073830;28;20252;-74
2023/12/01 04:49:08;;;;;;;59.83;29.57;;;1.70;99.90;;;;;;5074080;28;20255;-74
2023/12/01 04:51:35;;;;;;;62.63;27.37;;;1.70;99.90;;;;;;5073474;28;20192;-74
2023/12/01 04:54:04;;;;;;;69.20;32.87;;;1.80;99.90;;;;;;5073759;28;20624;-74
2023/12/01 04:56:30;;;;;;;65.63;29.90;;;1.80;99.90;;;;;;5073842;28;20169;-74
2023/12/01 04:58:56;;;;;;;65.20;30.10;;;1.70;99.90;;;;;;5073759;28;20578;-74
2023/12/01 05:01:21;;;;;;;67.57;31.20;;;1.70;99.90;;;;;;5072623;28;20551;-73
2023/12/01 05:03:47;;;;;;;60.97;28.57;;;1.80;99.90;;;;;;5075922;28;20172;-73
2023/12/01 05:06:12;;;;;;;60.13;26.77;;;1.70;99.90;;;;;;5072152;28;20566;-74
2023/12/01 05:08:38;;;;;;;58.87;26.57;;;1.50;99.90;;;;;;5073809;28;20247;-74
2023/12/01 05:11:04;;;;;;;67.13;30.43;;;1.50;99.90;;;;;;5071801;28;20177;-74
2023/12/01 05:13:30;;;;;;;61.17;26.00;;;1.50;99.90;;;;;;5073704;28;20187;-74
2023/12/01 05:15:56;;;;;;;62.30;25.93;;;1.60;99.90;;;;;;5073143;28;20632;-75
2023/12/01 05:18:22;;;;;;;59.87;26.83;;;1.60;99.90;;;;;;5073320;28;20287;-73
2023/12/01 05:20:47;;;;;;;65.83;27.43;;;1.60;99.90;;;;;;5073288;28;20165;-73
2023/12/01 05:23:13;;;;;;;62.13;26.30;;;1.50;99.90;;;;;;5073098;28;20171;-74
2023/12/01 05:25:41;;;;;;;60.40;26.47;;;1.60;99.90;;;;;;5073395;28;20248;-74
2023/12/01 05:28:08;;;;;;;62.63;28.53;;;1.50;99.90;;;;;;5073072;28;20181;-74
2023/12/01 05:30:35;;;;;;;63.87;28.60;;;1.60;99.90;;;;;;5072922;28;20199;-75
2023/12/01 05:33:01;;;;;;;60.07;26.63;;;1.70;99.90;;;;;;5072984;28;20195;-74
2023/12/01 05:35:27;;;;;;;64.77;28.23;;;1.70;99.90;;;;;;5071718;28;20172;-74
2023/12/01 05:37:54;;;;;;;66.40;28.73;;;1.70;99.90;;;;;;5072998;28;20199;-74
2023/12/01 05:40:28;;;;;;;61.93;24.07;;;1.60;99.90;;;;;;5073078;28;20199;-75
2023/12/01 05:42:57;;;;;;;60.83;25.57;;;1.50;99.90;;;;;;5072696;28;20538;-73
2023/12/01 05:45:27;;;;;;;60.77;26.03;;;1.50;99.90;;;;;;5072965;28;20248;-75
2023/12/01 05:47:54;;;;;;;53.00;23.83;;;1.50;99.90;;;;;;5073042;28;20172;-73
2023/12/01 05:50:32;;;;;;;60.33;24.70;;;1.60;99.90;;;;;;5072420;28;20198;-74
2023/12/01 05:53:00;;;;;;;57.27;25.33;;;1.60;99.90;;;;;;5072332;28;20207;-73
2023/12/01 05:55:28;;;;;;;59.33;27.43;;;1.60;99.90;;;;;;5072472;28;20164;-74
2023/12/01 05:57:55;;;;;;;58.63;23.87;;;1.70;99.90;;;;;;5071213;28;20207;-74
2023/12/01 06:00:29;;;;;;;51.67;22.67;;;1.60;99.90;;;;;;5072612;28;20652;-75
2023/12/01 06:02:55;;;;;;;56.27;22.53;;;1.50;99.90;;;;;;5072040;28;20168;-74
2023/12/01 06:05:21;;;;;;;61.00;26.37;;;1.50;99.90;;;;;;5072586;28;20557;-74
2023/12/01 06:07:54;;;;;;;50.70;23.73;;;1.50;99.90;;;;;;5072423;28;20179;-74
2023/12/01 06:10:21;;;;;;;56.90;24.00;;;1.50;99.90;;;;;;5072214;28;20250;-75
2023/12/01 06:12:47;;;;;;;49.17;22.00;;;1.40;99.90;;;;;;5072151;28;20177;-73
2023/12/01 06:15:14;;;;;;;53.10;23.10;;;1.50;99.90;;;;;;5072254;28;20643;-73
2023/12/01 06:17:42;;;;;;;54.80;23.87;;;1.40;99.90;;;;;;5071646;28;20172;-74
2023/12/01 06:20:17;;;;;;;40.70;19.23;;;1.40;99.90;;;;;;5071843;28;20608;-74
2023/12/01 06:22:48;;;;;;;58.23;22.87;;;1.40;99.90;;;;;;5073613;28;20239;-74
2023/12/01 06:25:15;;;;;;;53.40;24.00;;;1.40;99.90;;;;;;5074509;28;20168;-73
2023/12/01 06:27:41;;;;;;;57.60;24.33;;;1.20;99.90;;;;;;5075702;28;20187;-74
2023/12/01 06:30:11;;;;;;;53.80;23.60;;;1.30;99.90;;;;;;5075868;28;20199;-74
2023/12/01 06:32:45;;;;;;;53.77;19.80;;;1.30;99.90;;;;;;5075812;28;20175;-74
2023/12/01 06:35:15;;;;;;;51.87;23.20;;;1.20;99.90;;;;;;5076209;28;20175;-75
2023/12/01 06:37:42;;;;;;;63.83;26.57;;;1.20;99.90;;;;;;5075795;28;20171;-74
2023/12/01 06:40:11;;;;;;;59.33;25.20;;;1.30;99.90;;;;;;5075452;28;20620;-73
2023/12/01 06:42:41;;;;;;;62.50;25.47;;;1.40;99.90;;;;;;5074230;28;20164;-74
2023/12/01 06:45:10;;;;;;;59.23;23.93;;;1.40;99.90;;;;;;5075595;28;20183;-75
2023/12/01 06:47:36;;;;;;;52.57;23.67;;;1.50;99.90;;;;;;5074804;28;20168;-75
2023/12/01 06:50:02;;;;;;;50.37;23.80;;;1.50;99.90;;;;;;5075110;28;20217;-74
2023/12/01 06:52:28;;;;;;;46.13;19.87;;;1.50;99.90;;;;;;5075125;28;20272;-74
2023/12/01 06:54:54;;;;;;;51.20;23.57;;;1.40;99.90;;;;;;5074985;28;20188;-72
2023/12/01 06:57:19;;;;;;;52.50;23.03;;;1.30;99.90;;;;;;5073596;28;20250;-74
2023/12/01 06:59:45;;;;;;;44.50;21.00;;;1.30;99.90;;;;;;5074851;28;20208;-75
2023/12/01 07:02:11;;;;;;;52.93;22.77;;;1.40;99.90;;;;;;5072369;28;20180;-76
2023/12/01 07:04:37;;;;;;;52.10;22.90;;;1.40;99.90;;;;;;5074621;28;20248;-75
2023/12/01 07:07:03;;;;;;;51.27;23.40;;;1.40;99.90;;;;;;5074867;28;20250;-74
2023/12/01 07:09:29;;;;;;;48.80;22.10;;;1.50;99.90;;;;;;5074862;28;20195;-75
2023/12/01 07:11:55;;;;;;;47.27;21.60;;;1.50;99.90;;;;;;5074769;28;20164;-74
2023/12/01 07:14:23;;;;;;;47.87;21.13;;;1.30;99.90;;;;;;5075098;28;20168;-73
2023/12/01 07:16:49;;;;;;;33.63;16.67;;;1.30;99.90;;;;;;5073963;28;20168;-74
2023/12/01 07:19:16;;;;;;;50.17;21.70;;;1.20;99.90;;;;;;5074837;28;20212;-75
2023/12/01 07:21:45;;;;;;;49.83;22.07;;;1.20;99.90;;;;;;5073516;28;20165;-74
2023/12/01 07:24:10;;;;;;;48.27;21.67;;;1.20;99.90;;;;;;5073472;28;20207;-74
2023/12/01 07:26:36;;;;;;;50.20;22.13;;;1.20;99.90;;;;;;5074690;28;20258;-74
2023/12/01 07:29:06;;;;;;;38.03;15.80;;;1.10;99.90;;;;;;5073546;28;20196;-75
2023/12/01 07:31:33;;;;;;;49.93;22.07;;;1.00;99.90;;;;;;5074197;28;20531;-74
2023/12/01 07:33:59;;;;;;;45.23;20.17;;;1.00;99.90;;;;;;5074338;28;20172;-74
2023/12/01 07:36:25;;;;;;;49.10;18.90;;;1.00;99.90;;;;;;5074566;28;20190;-75
2023/12/01 07:38:51;;;;;;;50.27;21.10;;;0.90;99.90;;;;;;5074442;28;20208;-75
2023/12/01 07:41:17;;;;;;;42.93;16.63;;;0.90;99.90;;;;;;5075230;28;20168;-75
2023/12/01 07:43:42;;;;;;;49.23;21.13;;;1.00;99.90;;;;;;5074600;28;20673;-75
2023/12/01 07:46:08;;;;;;;45.03;19.70;;;1.00;99.90;;;;;;5073885;28;20182;-75
2023/12/01 07:48:37;;;;;;;47.93;22.00;;;1.10;99.90;;;;;;5074064;28;20640;-75
2023/12/01 07:51:04;;;;;;;51.70;22.23;;;1.10;99.90;;;;;;5073845;28;20196;-74
2023/12/01 07:53:30;;;;;;;51.77;21.13;;;1.20;99.90;;;;;;5074264;28;20247;-74
2023/12/01 07:55:55;;;;;;;52.63;20.87;;;1.10;99.90;;;;;;5072082;28;20207;-74
2023/12/01 07:58:21;;;;;;;47.20;19.30;;;1.00;99.90;;;;;;5071862;28;20296;-74
2023/12/01 08:00:47;;;;;;;48.90;18.73;;;1.00;99.90;;;;;;5073698;28;20168;-76
2023/12/01 08:03:12;;;;;;;53.23;18.90;;;1.00;99.90;;;;;;5073608;28;20176;-77
2023/12/01 08:05:39;;;;;;;52.87;19.63;;;1.00;99.90;;;;;;5074033;28;20165;-75
2023/12/01 08:08:05;;;;;;;51.00;17.80;;;0.90;99.90;;;;;;5072753;28;20676;-75
2023/12/01 08:10:31;;;;;;;54.63;20.03;;;0.90;99.90;;;;;;5074299;28;20173;-75
2023/12/01 08:12:57;;;;;;;63.97;24.33;;;0.90;99.90;;;;;;5074537;28;20206;-75
2023/12/01 08:15:23;;;;;;;63.40;25.03;;;1.00;99.90;;;;;;5073530;28;20280;-75
2023/12/01 08:17:49;;;;;;;60.70;24.37;;;1.00;99.90;;;;;;5071667;28;20179;-76
2023/12/01 08:20:16;;;;;;;65.70;24.67;;;0.90;99.90;;;;;;5072703;28;20393;-75
2023/12/01 08:22:48;;;;;;;55.97;20.73;;;0.90;99.90;;;;;;5074634;28;20168;-75
2023/12/01 08:25:15;;;;;;;52.60;20.47;;;0.90;99.90;;;;;;5074283;28;20194;-75
2023/12/01 08:27:41;;;;;;;56.37;20.97;;;0.90;99.90;;;;;;5073270;28;20659;-74
2023/12/01 08:30:08;;;;;;;45.50;19.97;;;0.90;99.90;;;;;;5072855;28;20195;-75
2023/12/01 08:32:34;;;;;;;66.60;25.70;;;0.80;99.90;;;;;;5073816;28;20173;-75
2023/12/01 08:35:00;;;;;;;65.67;25.73;;;0.90;99.90;;;;;;5072090;28;20180;-75
2023/12/01 08:37:25;;;;;;;50.73;20.03;;;0.90;99.90;;;;;;5073882;28;20175;-75
2023/12/01 08:39:51;;;;;;;62.93;23.20;;;0.90;99.90;;;;;;5073364;28;20217;-75
2023/12/01 08:42:18;;;;;;;75.77;26.77;;;0.70;99.90;;;;;;5073361;28;20234;-74
2023/12/01 08:44:44;;;;;;;63.27;23.87;;;0.80;99.90;;;;;;5072345;28;20293;-76
2023/12/01 08:47:11;;;;;;;68.83;23.73;;;0.80;99.90;;;;;;5072926;28;20207;-75
2023/12/01 08:49:37;;;;;;;64.67;25.53;;;0.90;99.90;;;;;;5073552;28;20179;-75
2023/12/01 08:52:03;;;;;;;73.47;26.37;;;0.80;99.90;;;;;;5073944;28;20164;-75
2023/12/01 08:54:28;;;;;;;65.60;24.27;;;0.90;99.90;;;;;;5073186;28;20203;-75
2023/12/01 08:56:54;;;;;;;78.93;27.03;;;0.90;99.90;;;;;;5073437;28;20259;-74
2023/12/01 08:59:19;;;;;;;65.97;25.23;;;0.90;99.90;;;;;;5072185;28;20214;-75
2023/12/01 09:01:45;;;;;;;69.77;27.13;;;1.00;99.90;;;;;;5072090;28;20576;-74
2023/12/01 09:04:11;;;;;;;68.87;27.67;;;1.10;99.90;;;;;;5073109;28;20194;-74
2023/12/01 09:06:38;;;;;;;68.70;25.83;;;1.00;99.90;;;;;;5073391;28;20176;-75
2023/12/01 09:09:04;;;;;;;68.70;26.60;;;1.10;99.90;;;;;;5072043;28;20192;-75
2023/12/01 09:11:30;;;;;;;63.93;23.33;;;1.10;99.90;;;;;;5071908;28;20164;-74
2023/12/01 09:13:56;;;;;;;67.73;26.97;;;1.10;99.90;;;;;;5073050;28;20616;-74
2023/12/01 09:16:23;;;;;;;71.80;28.20;;;1.00;99.90;;;;;;5073197;28;20176;-75
2023/12/01 09:18:50;;;;;;;74.63;26.30;;;1.30;99.90;;;;;;5071908;28;20271;-76
2023/12/01 09:21:16;;;;;;;71.53;28.13;;;1.10;99.90;;;;;;5072679;28;20174;-74
2023/12/01 09:23:41;;;;;;;61.77;23.20;;;1.20;99.90;;;;;;5072789;28;20175;-74
2023/12/01 09:26:07;;;;;;;61.93;26.07;;;1.20;99.90;;;;;;5072313;28;20695;-75
2023/12/01 09:28:36;;;;;;;67.50;27.27;;;1.20;99.90;;;;;;5073078;28;20200;-75
2023/12/01 09:31:02;;;;;;;61.30;24.77;;;1.20;99.90;;;;;;5073300;28;20169;-75
2023/12/01 09:33:28;;;;;;;60.57;22.20;;;1.30;99.90;;;;;;5071661;28;20172;-74
2023/12/01 09:35:53;;;;;;;68.07;27.80;;;1.30;99.90;;;;;;5072572;28;20561;-74
2023/12/01 09:38:19;;;;;;;79.60;29.83;;;1.30;99.90;;;;;;5071842;28;20216;-74
2023/12/01 09:40:45;;;;;;;72.53;26.57;;;1.40;99.90;;;;;;5071914;28;20200;-74
2023/12/01 09:43:17;;;;;;;69.77;29.40;;;1.40;99.90;;;;;;5072724;28;20168;-75
2023/12/01 09:45:44;;;;;;;56.47;21.17;;;1.40;99.90;;;;;;5072789;28;20168;-75
2023/12/01 09:48:11;;;;;;;69.30;26.97;;;1.20;99.90;;;;;;5071745;28;20640;-75
2023/12/01 09:50:37;;;;;;;67.10;28.03;;;1.20;99.90;;;;;;5072704;28;20199;-74
2023/12/01 09:53:03;;;;;;;69.57;30.40;;;1.00;99.90;;;;;;5072772;28;20217;-74
2023/12/01 09:55:29;;;;;;;71.63;28.67;;;1.10;99.90;;;;;;5072333;28;20179;-74
2023/12/01 09:57:56;;;;;;;75.73;30.67;;;1.20;99.90;;;;;;5072394;28;20198;-74
2023/12/01 10:00:22;;;;;;;68.13;28.27;;;1.30;99.90;;;;;;5072435;28;20174;-74
2023/12/01 10:02:48;;;;;;;67.57;28.23;;;1.30;99.90;;;;;;5072324;28;20612;-75
2023/12/01 10:05:18;;;;;;;67.27;29.27;;;1.50;99.90;;;;;;5071884;28;20191;-74
2023/12/01 10:07:44;;;;;;;63.93;24.47;;;1.50;99.90;;;;;;5072057;28;20176;-75
2023/12/01 10:10:23;;;;;;;58.30;24.67;;;1.50;99.90;;;;;;5072466;28;20186;-74
2023/12/01 10:13:09;;;;;;;49.83;21.63;;;1.40;99.90;;;;;;5072120;28;20182;-74
2023/12/01 10:15:39;;;;;;;63.77;27.20;;;1.20;99.90;;;;;;5071907;28;20302;-75
2023/12/01 10:18:12;;;;;;;57.70;23.73;;;1.20;99.90;;;;;;5072545;28;20204;-75
2023/12/01 10:20:41;;;;;;;45.77;20.23;;;1.30;99.90;;;;;;5071924;28;20635;-75
2023/12/01 10:23:17;;;;;;;40.63;16.83;;;1.30;99.90;;;;;;5071861;28;20176;-75
2023/12/01 10:25:50;;;;;;;64.87;27.17;;;1.20;99.90;;;;;;5071731;28;20395;-75
2023/12/01 10:28:17;;;;;;;59.97;25.60;;;1.20;99.90;;;;;;5072286;28;20187;-75
2023/12/01 10:30:57;;;;;;;52.73;22.93;;;1.30;99.90;;;;;;5072131;28;20172;-74
2023/12/01 10:33:24;;;;;;;59.77;24.70;;;1.30;99.90;;;;;;5071388;28;20287;-75
2023/12/01 10:36:04;;;;;;;51.07;21.27;;;1.30;99.90;;;;;;5071204;28;20173;-73
2023/12/01 10:38:30;;;;;;;51.87;25.97;;;1.30;99.90;;;;;;5071651;28;20571;-74
2023/12/01 10:40:58;;;;;;;54.03;26.97;;;1.30;99.90;;;;;;5070082;28;20708;-74
2023/12/01 10:43:24;;;;;;;50.83;23.07;;;1.30;99.90;;;;;;5072389;28;20173;-74
2023/12/01 10:45:50;;;;;;;56.07;26.47;;;1.30;99.90;;;;;;5072459;28;20238;-74
2023/12/01 10:48:20;;;;;;;56.00;27.23;;;1.30;99.90;;;;;;5071859;28;20273;-74
2023/12/01 10:50:47;;;;;;;52.03;25.70;;;1.50;99.90;;;;;;5070597;28;20543;-74
2023/12/01 10:53:18;;;;;;;45.10;20.10;;;1.50;99.90;;;;;;5070010;28;20177;-74
2023/12/01 10:55:46;;;;;;;38.67;17.87;;;1.50;99.90;;;;;;5071538;28;20173;-73
2023/12/01 10:58:20;;;;;;;51.13;24.83;;;1.50;99.90;;;;;;5071040;28;20215;-73
2023/12/01 11:00:50;;;;;;;53.50;24.23;;;1.50;99.90;;;;;;5072288;28;20636;-74
2023/12/01 11:03:24;;;;;;;43.63;21.30;;;1.60;99.90;;;;;;5071671;28;20175;-75
2023/12/01 11:06:01;;;;;;;52.50;25.93;;;1.50;99.90;;;;;;5071617;28;20659;-75
2023/12/01 11:09:15;;;;;;;52.17;24.17;;;1.50;99.90;;;;;;5073223;28;20221;-74
2023/12/01 11:12:08;;;;;;;47.73;20.43;;;1.50;99.90;;;;;;5038721;28;20176;-75
2023/12/01 11:14:35;;;;;;;64.03;28.50;;;1.50;99.90;;;;;;5075023;28;20176;-74
2023/12/01 11:17:01;;;;;;;53.07;23.47;;;1.50;99.90;;;;;;5075099;28;20165;-74
2023/12/01 11:19:36;;;;;;;63.23;30.10;;;1.50;99.90;;;;;;5074769;28;20694;-74
2023/12/01 11:22:24;;;;;;;68.60;30.73;;;1.60;99.90;;;;;;5074873;28;20175;-73
2023/12/01 11:24:50;;;;;;;63.63;26.40;;;1.70;99.90;;;;;;5075129;28;20172;-73
2023/12/01 11:27:16;;;;;;;68.27;27.03;;;1.70;99.90;;;;;;5075454;28;20303;-73
2023/12/01 11:30:07;;;;;;;66.50;29.87;;;1.70;99.90;;;;;;5073096;28;20256;-74
2023/12/01 11:32:38;;;;;;;68.23;28.07;;;1.70;99.90;;;;;;5074504;28;20165;-74
2023/12/01 11:35:07;;;;;;;70.80;30.47;;;1.60;99.90;;;;;;5075410;28;20161;-74
2023/12/01 11:37:54;;;;;;;68.77;27.83;;;1.50;99.90;;;;;;5074263;28;20658;-74
2023/12/01 11:40:22;;;;;;;68.40;29.77;;;1.50;99.90;;;;;;5074297;28;20184;-74
2023/12/01 11:42:51;;;;;;;65.73;28.37;;;1.60;99.90;;;;;;5074676;28;20160;-75
2023/12/01 11:45:36;;;;;;;65.27;27.77;;;1.70;99.90;;;;;;5074326;28;20164;-74
2023/12/01 11:48:07;;;;;;;59.90;26.47;;;1.70;99.90;;;;;;5075076;28;20255;-74
2023/12/01 11:50:33;;;;;;;60.50;27.07;;;1.80;99.90;;;;;;5075355;28;20169;-74
2023/12/01 11:52:59;;;;;;;61.17;27.93;;;1.80;99.90;;;;;;5073669;28;20180;-74
2023/12/01 11:55:26;;;;;;;57.97;26.10;;;1.80;99.90;;;;;;5074727;28;20169;-74
2023/12/01 11:57:53;;;;;;;58.33;26.43;;;1.90;99.90;;;;;;5073825;28;20184;-73
2023/12/01 12:00:19;;;;;;;66.97;27.77;;;2.00;99.90;;;;;;5074459;28;20168;-74
2023/12/01 12:02:46;;;;;;;58.57;24.97;;;2.00;99.90;;;;;;5073976;28;20169;-74
2023/12/01 12:05:12;;;;;;;63.83;27.60;;;2.00;99.90;;;;;;5072593;28;20503;-74
2023/12/01 12:07:38;;;;;;;55.67;26.67;;;2.10;99.90;;;;;;5071981;28;20179;-74
2023/12/01 12:10:06;;;;;;;59.57;28.40;;;2.20;99.90;;;;;;5073362;28;20525;-74
2023/12/01 12:12:32;;;;;;;59.50;27.03;;;2.40;99.90;;;;;;5073529;28;20256;-73
2023/12/01 12:15:13;;;;;;;59.83;26.63;;;2.40;99.90;;;;;;5073599;28;20184;-74
2023/12/01 12:17:40;;;;;;;55.00;26.43;;;2.30;99.90;;;;;;5072640;28;20184;-73
2023/12/01 12:20:09;;;;;;;53.83;24.63;;;2.30;99.90;;;;;;5073581;28;20172;-74
2023/12/01 12:22:35;;;;;;;57.20;25.80;;;2.40;99.90;;;;;;5074097;28;20222;-74
2023/12/01 12:25:01;;;;;;;55.30;24.33;;;2.50;99.90;;;;;;5074000;28;20161;-75
2023/12/01 12:27:37;;;;;;;58.30;26.50;;;2.30;99.90;;;;;;5073257;28;20575;-74
2023/12/01 12:30:03;;;;;;;51.07;25.43;;;2.20;99.90;;;;;;5073940;28;20183;-75
2023/12/01 12:32:29;;;;;;;55.87;26.00;;;2.20;99.90;;;;;;5072631;28;20493;-74
2023/12/01 12:34:55;;;;;;;59.10;26.10;;;2.20;99.90;;;;;;5072103;28;20175;-74
2023/12/01 12:37:22;;;;;;;59.43;23.67;;;2.20;99.90;;;;;;5073369;28;20531;-74